Search for airport 
image banner adimage banner ad
image banner ad

EKVG - Vagar

Located in All Faeroe Islands, Faroe Islands

ICAO - EKVG, IATA - FAE

Data provided by Airmate  

General information

Coordinates: N62°3'49" W7°16'38"
Elevation is 280 feet MSL.
Magnetic variation is -6.8° East
View others Airports in (unassigned)

Operational data

Open for public use
Current time UTC:
Current local time:
Weather
METAR: EKVG 231150Z AUTO 29009KT 6000 RA BKN015/// 01/M00 Q0985
TAF: TAF EKVG 230819Z 2309/2318 33012KT 9999 SCT015 BKN025 TEMPO 2309/2311 1500 SHSNRA BKN010CB
View NOTAMs / SUP AIP / TFR affecting this airport [VIEW]
Communications frequencies: [VIEW]

Runways:

RWY identifierQFULength (ft)Width (ft)SurfaceLDA (ft)
12118°590298ASPH5902
30298°590298ASPH5902

Airport contact information

Address: All Faeroe Islands Faroe Islands

Satellite view of EKVG